createdAt,value
2018-09-20T00:00:55.256Z,19.18
2018-09-20T00:02:04.859Z,19.22
2018-09-20T00:03:14.970Z,19.19
2018-09-20T00:04:24.010Z,19.22
2018-09-20T00:05:34.178Z,19.28
2018-09-20T00:06:44.018Z,19.21
2018-09-20T00:07:53.592Z,19.13
2018-09-20T00:09:09.429Z,19.21
2018-09-20T00:10:19.271Z,19.06
2018-09-20T00:11:29.380Z,19.06
2018-09-20T00:12:38.951Z,19.07
2018-09-20T00:13:48.819Z,19.08
2018-09-20T00:14:58.657Z,19.08
2018-09-20T00:16:08.502Z,19.07
2018-09-20T00:17:18.382Z,18.98
2018-09-20T00:18:28.216Z,18.95
2018-09-20T00:19:38.337Z,18.9
2018-09-20T00:20:47.908Z,18.91
2018-09-20T00:21:58.017Z,18.98
2018-09-20T00:23:08.181Z,18.98
2018-09-20T00:24:18.299Z,18.85
2018-09-20T00:25:28.375Z,18.98
2018-09-20T00:26:37.678Z,18.95
2018-09-20T00:27:47.280Z,18.99
2018-09-20T00:28:57.440Z,18.9
2018-09-20T00:30:07.284Z,18.87
2018-09-20T00:31:17.122Z,18.82
2018-09-20T00:32:26.418Z,18.87
2018-09-20T00:33:35.984Z,18.82
2018-09-20T00:34:45.826Z,18.88
2018-09-20T00:35:55.938Z,18.85
2018-09-20T00:37:05.529Z,18.91
2018-09-20T00:38:15.376Z,18.75
2018-09-20T00:39:25.491Z,18.84
2018-09-20T00:40:35.335Z,18.85
2018-09-20T00:41:45.479Z,18.7
2018-09-20T00:42:55.047Z,18.8
2018-09-20T00:44:04.618Z,18.75
2018-09-20T00:45:14.461Z,18.69
2018-09-20T00:46:24.809Z,18.66
2018-09-20T00:47:34.917Z,18.73
2018-09-20T00:48:44.220Z,18.7
2018-09-20T00:49:54.097Z,18.66
2018-09-20T00:51:04.207Z,18.58
2018-09-20T00:52:13.774Z,18.72
2018-09-20T00:53:23.886Z,18.62
2018-09-20T00:54:33.728Z,18.6
2018-09-20T00:55:43.034Z,18.58
2018-09-20T00:56:52.878Z,18.54
2018-09-20T00:58:02.454Z,18.52
2018-09-20T00:59:11.754Z,18.6
2018-09-20T01:00:21.863Z,18.57
2018-09-20T01:01:31.739Z,18.55
2018-09-20T01:02:41.873Z,18.65
2018-09-20T01:03:51.719Z,18.57
2018-09-20T01:05:01.295Z,18.6
2018-09-20T01:06:11.436Z,18.55
2018-09-20T01:07:21.310Z,18.54
2018-09-20T01:08:31.156Z,18.58
2018-09-20T01:09:41.317Z,18.55
2018-09-20T01:10:51.186Z,18.57
2018-09-20T01:12:01.305Z,18.52
2018-09-20T01:13:11.151Z,18.55
2018-09-20T01:14:20.751Z,18.58
2018-09-20T01:15:30.860Z,18.54
2018-09-20T01:16:40.430Z,18.52
2018-09-20T01:17:50.276Z,18.52
2018-09-20T01:19:00.116Z,18.51
2018-09-20T01:20:10.223Z,18.36
2018-09-20T01:21:20.067Z,18.44
2018-09-20T01:22:30.184Z,18.37
2018-09-20T01:23:40.288Z,18.32
2018-09-20T01:24:50.183Z,18.33
2018-09-20T01:26:00.024Z,18.32
2018-09-20T01:27:09.868Z,18.3
2018-09-20T01:28:19.991Z,18.3
2018-09-20T01:29:29.833Z,18.27
2018-09-20T01:30:39.945Z,18.33
2018-09-20T01:31:49.516Z,18.2
2018-09-20T01:32:59.089Z,18.15
2018-09-20T01:34:08.934Z,18.17
2018-09-20T01:35:18.924Z,18.26
2018-09-20T01:36:28.869Z,18.21
2018-09-20T01:37:38.742Z,18.17
2018-09-20T01:38:48.558Z,18.23
2018-09-20T01:39:58.130Z,18.2
2018-09-20T01:41:08.240Z,18.07
2018-09-20T01:42:17.810Z,18.08
2018-09-20T01:43:27.929Z,18.11
2018-09-20T01:44:37.776Z,18
2018-09-20T01:45:47.880Z,18
2018-09-20T01:46:57.718Z,17.99
2018-09-20T01:48:07.557Z,17.99
2018-09-20T01:49:17.401Z,18
2018-09-20T01:50:27.124Z,17.95
2018-09-20T01:51:36.736Z,17.89
2018-09-20T01:52:46.587Z,17.87
2018-09-20T01:53:56.179Z,17.87
2018-09-20T01:55:05.751Z,17.79
2018-09-20T01:56:15.323Z,17.77
2018-09-20T01:57:24.891Z,17.77
2018-09-20T01:58:34.463Z,17.72
2018-09-20T01:59:44.631Z,17.7
2018-09-20T02:00:54.528Z,17.74
2018-09-20T02:02:04.101Z,17.64
2018-09-20T02:03:14.221Z,17.63
2018-09-20T02:04:23.525Z,17.66
2018-09-20T02:05:33.690Z,17.71
2018-09-20T02:06:43.254Z,17.7
2018-09-20T02:07:52.668Z,17.66
2018-09-20T02:09:02.505Z,17.64
2018-09-20T02:10:11.802Z,17.68
2018-09-20T02:11:21.911Z,17.63
2018-09-20T02:12:31.754Z,17.51
2018-09-20T02:13:41.917Z,17.54
2018-09-20T02:14:51.758Z,17.55
2018-09-20T02:16:01.332Z,17.58
2018-09-20T02:17:11.438Z,17.59
2018-09-20T02:18:21.552Z,17.55
2018-09-20T02:19:31.124Z,17.54
2018-09-20T02:20:41.003Z,17.51
2018-09-20T02:21:51.115Z,17.51
2018-09-20T02:23:01.276Z,17.49
2018-09-20T02:24:10.848Z,17.41
2018-09-20T02:25:20.423Z,17.43
2018-09-20T02:26:29.999Z,17.46
2018-09-20T02:27:39.843Z,17.44
2018-09-20T02:28:49.686Z,17.36
2018-09-20T02:29:59.531Z,17.4
2018-09-20T02:31:09.439Z,17.4
2018-09-20T02:32:19.559Z,17.38
2018-09-20T02:33:29.667Z,17.3
2018-09-20T02:34:39.528Z,17.3
2018-09-20T02:35:49.666Z,17.33
2018-09-20T02:36:59.785Z,17.31
2018-09-20T02:38:09.367Z,17.22
2018-09-20T02:39:18.394Z,17.31
2018-09-20T02:40:28.298Z,17.25
2018-09-20T02:41:37.611Z,17.21
2018-09-20T02:42:46.917Z,17.31
2018-09-20T02:43:56.495Z,17.21
2018-09-20T02:45:06.387Z,17.18
2018-09-20T02:46:16.508Z,17.22
2018-09-20T02:47:26.625Z,17.18
2018-09-20T02:48:35.923Z,17.18
2018-09-20T02:49:45.782Z,17.21
2018-09-20T02:50:55.083Z,17.18
2018-09-20T02:52:04.382Z,17.23
2018-09-20T02:53:14.509Z,17.21
2018-09-20T02:54:24.092Z,17.19
2018-09-20T02:55:33.938Z,17.21
2018-09-20T02:56:43.818Z,17.18
2018-09-20T02:57:53.128Z,17.15
2018-09-20T02:59:02.948Z,17.21
2018-09-20T03:00:13.384Z,17.22
2018-09-20T03:01:22.961Z,17.19
2018-09-20T03:02:32.472Z,17.22
2018-09-20T03:03:42.327Z,17.19
2018-09-20T03:04:52.187Z,17.19
2018-09-20T03:06:02.331Z,17.21
2018-09-20T03:07:11.640Z,17.19
2018-09-20T03:08:20.971Z,17.19
2018-09-20T03:09:31.087Z,17.18
2018-09-20T03:10:40.943Z,17.26
2018-09-20T03:11:50.838Z,17.19
2018-09-20T03:13:00.694Z,17.15
2018-09-20T03:14:10.560Z,17.22
2018-09-20T03:15:20.131Z,17.22
2018-09-20T03:16:29.433Z,17.31
2018-09-20T03:17:39.277Z,17.26
2018-09-20T03:18:49.386Z,17.23
2018-09-20T03:19:59.496Z,17.26
2018-09-20T03:21:09.344Z,17.26
2018-09-20T03:22:19.469Z,17.33
2018-09-20T03:23:29.589Z,17.18
2018-09-20T03:24:39.443Z,17.22
2018-09-20T03:25:49.291Z,17.21
2018-09-20T03:26:58.869Z,17.19
2018-09-20T03:28:08.448Z,17.18
2018-09-20T03:29:18.048Z,17.18
2018-09-20T03:30:27.809Z,17.16
2018-09-20T03:31:37.995Z,17.22
2018-09-20T03:32:48.127Z,17.21
2018-09-20T03:33:58.261Z,17.18
2018-09-20T03:35:08.419Z,17.21
2018-09-20T03:36:18.285Z,17.18
2018-09-20T03:37:27.877Z,17.16
2018-09-20T03:38:37.996Z,17.22
2018-09-20T03:39:48.149Z,17.21
2018-09-20T03:40:58.010Z,17.14
2018-09-20T03:42:08.128Z,17.22
2018-09-20T03:43:17.962Z,17.19
2018-09-20T03:44:27.804Z,17.22
2018-09-20T03:45:37.609Z,17.15
2018-09-20T03:46:47.766Z,17.19
2018-09-20T03:47:57.609Z,17.22
2018-09-20T03:49:07.509Z,17.19
2018-09-20T03:50:17.079Z,17.19
2018-09-20T03:51:26.930Z,17.18
2018-09-20T03:52:36.837Z,17.26
2018-09-20T03:53:46.689Z,17.18
2018-09-20T03:54:56.258Z,17.23
2018-09-20T03:56:06.105Z,17.34
2018-09-20T03:57:15.947Z,17.25
2018-09-20T03:58:26.067Z,17.3
2018-09-20T03:59:35.909Z,17.26
2018-09-20T04:00:46.080Z,17.3
2018-09-20T04:01:55.917Z,17.3
2018-09-20T04:03:05.515Z,17.28
2018-09-20T04:04:15.408Z,17.33
2018-09-20T04:05:24.711Z,17.31
2018-09-20T04:06:34.833Z,17.36
2018-09-20T04:07:44.984Z,17.34
2018-09-20T04:08:54.885Z,17.3
2018-09-20T04:10:05.082Z,17.34
2018-09-20T04:11:14.660Z,17.38
2018-09-20T04:12:23.983Z,17.37
2018-09-20T04:13:34.130Z,17.33
2018-09-20T04:14:43.702Z,17.3
2018-09-20T04:15:53.275Z,17.31
2018-09-20T04:17:03.319Z,17.36
2018-09-20T04:18:13.459Z,17.3
2018-09-20T04:19:23.040Z,17.3
2018-09-20T04:20:33.165Z,17.36
2018-09-20T04:21:42.738Z,17.43
2018-09-20T04:22:52.858Z,17.44
2018-09-20T04:24:02.713Z,17.46
2018-09-20T04:25:12.835Z,17.4
2018-09-20T04:26:22.400Z,17.38
2018-09-20T04:27:32.033Z,17.44
2018-09-20T04:28:41.886Z,17.38
2018-09-20T04:29:52.062Z,17.4
2018-09-20T04:31:01.365Z,17.37
2018-09-20T04:32:10.979Z,17.41
2018-09-20T04:33:20.555Z,17.43
2018-09-20T04:34:30.401Z,17.46
2018-09-20T04:35:39.982Z,17.4
2018-09-20T04:36:49.855Z,17.38
2018-09-20T04:37:59.430Z,17.34
2018-09-20T04:39:09.275Z,17.36
2018-09-20T04:40:18.842Z,17.34
2018-09-20T04:41:28.733Z,17.33
2018-09-20T04:42:38.669Z,17.34
2018-09-20T04:43:48.513Z,17.3
2018-09-20T04:44:58.364Z,17.4
2018-09-20T04:46:08.214Z,17.43
2018-09-20T04:47:18.331Z,17.44
2018-09-20T04:48:27.628Z,17.4
2018-09-20T04:49:36.931Z,17.38
2018-09-20T04:50:46.236Z,17.33
2018-09-20T04:51:56.403Z,17.37
2018-09-20T04:53:06.708Z,17.33
2018-09-20T04:54:16.946Z,17.34
2018-09-20T04:55:26.864Z,17.38
2018-09-20T04:56:36.707Z,17.37
2018-09-20T04:57:46.285Z,17.33
2018-09-20T04:58:55.585Z,17.34
2018-09-20T05:00:05.332Z,17.26
2018-09-20T05:01:15.646Z,17.33
2018-09-20T05:02:25.755Z,17.34
2018-09-20T05:03:35.608Z,17.25
2018-09-20T05:04:45.178Z,17.33
2018-09-20T05:05:55.296Z,17.23
2018-09-20T05:07:05.407Z,17.28
2018-09-20T05:08:15.248Z,17.28
2018-09-20T05:09:24.597Z,17.28
2018-09-20T05:10:34.943Z,17.33
2018-09-20T05:11:44.785Z,17.34
2018-09-20T05:12:54.904Z,17.28
2018-09-20T05:14:04.207Z,17.28
2018-09-20T05:15:14.522Z,17.21
2018-09-20T05:16:24.062Z,17.26
2018-09-20T05:17:33.901Z,17.22
2018-09-20T05:18:43.472Z,17.3
2018-09-20T05:19:53.585Z,17.31
2018-09-20T05:21:03.454Z,17.18
2018-09-20T05:22:13.318Z,17.25
2018-09-20T05:23:23.164Z,17.34
2018-09-20T05:24:33.079Z,17.23
2018-09-20T05:25:42.433Z,17.31
2018-09-20T05:26:52.281Z,17.26
2018-09-20T05:28:01.590Z,17.31
2018-09-20T05:29:11.799Z,17.23
2018-09-20T05:30:21.906Z,17.21
2018-09-20T05:31:31.480Z,17.21
2018-09-20T05:32:41.057Z,17.23
2018-09-20T05:33:50.899Z,17.28
2018-09-20T05:35:00.752Z,17.18
2018-09-20T05:36:10.331Z,17.31
2018-09-20T05:37:20.176Z,17.19
2018-09-20T05:38:30.023Z,17.16
2018-09-20T05:39:39.900Z,17.19
2018-09-20T05:40:49.736Z,17.21
2018-09-20T05:41:59.042Z,17.21
2018-09-20T05:43:09.244Z,17.26
2018-09-20T05:44:19.321Z,17.19
2018-09-20T05:45:29.164Z,17.26
2018-09-20T05:46:39.311Z,17.3
2018-09-20T05:47:49.180Z,17.25
2018-09-20T05:48:59.320Z,17.3
2018-09-20T05:50:08.889Z,17.3
2018-09-20T05:51:18.474Z,17.31
2018-09-20T05:52:28.045Z,17.26
2018-09-20T05:53:37.620Z,17.28
2018-09-20T05:54:47.739Z,17.28
2018-09-20T05:55:57.577Z,17.31
2018-09-20T05:57:07.692Z,17.31
2018-09-20T05:58:17.799Z,17.36
2018-09-20T05:59:27.369Z,17.3
2018-09-20T06:00:36.673Z,17.4
2018-09-20T06:01:46.474Z,17.4
2018-09-20T06:02:56.324Z,17.36
2018-09-20T06:04:05.897Z,17.46
2018-09-20T06:05:15.747Z,17.52
2018-09-20T06:06:25.604Z,17.55
2018-09-20T06:07:35.443Z,17.58
2018-09-20T06:08:45.287Z,17.59
2018-09-20T06:09:54.884Z,17.51
2018-09-20T06:11:04.177Z,17.52
2018-09-20T06:12:14.019Z,17.68
2018-09-20T06:13:23.853Z,17.66
2018-09-20T06:14:33.385Z,17.68
2018-09-20T06:15:43.222Z,17.78
2018-09-20T06:16:53.362Z,17.79
2018-09-20T06:18:03.476Z,17.66
2018-09-20T06:19:12.777Z,17.77
2018-09-20T06:20:23.123Z,17.74
2018-09-20T06:21:32.183Z,17.74
2018-09-20T06:22:42.369Z,17.74
2018-09-20T06:23:51.719Z,17.87
2018-09-20T06:25:01.567Z,17.9
2018-09-20T06:26:11.414Z,17.89
2018-09-20T06:27:20.982Z,17.87
2018-09-20T06:28:30.858Z,17.93
2018-09-20T06:29:40.704Z,17.89
2018-09-20T06:30:50.582Z,17.93
2018-09-20T06:32:00.694Z,17.99
2018-09-20T06:33:10.564Z,17.99
2018-09-20T06:34:20.916Z,17.96
2018-09-20T06:35:30.491Z,18.02
2018-09-20T06:36:40.057Z,18.02
2018-09-20T06:37:49.675Z,18.02
2018-09-20T06:38:59.555Z,18.03
2018-09-20T06:40:09.406Z,17.96
2018-09-20T06:41:19.260Z,18.05
2018-09-20T06:42:29.150Z,18.08
2018-09-20T06:43:39.009Z,18.07
2018-09-20T06:44:48.873Z,18.11
2018-09-20T06:45:58.984Z,18.07
2018-09-20T06:47:09.107Z,18.17
2018-09-20T06:48:18.678Z,18.14
2018-09-20T06:49:28.843Z,18.12
2018-09-20T06:50:38.810Z,18.21
2018-09-20T06:51:48.654Z,18.12
2018-09-20T06:52:58.495Z,18.14
2018-09-20T06:54:08.338Z,18.17
2018-09-20T06:55:17.907Z,18.23
2018-09-20T06:56:27.785Z,18.25
2018-09-20T06:57:37.745Z,18.26
2018-09-20T06:58:47.862Z,18.26
2018-09-20T06:59:57.727Z,18.32
2018-09-20T07:01:07.601Z,18.3
2018-09-20T07:02:17.444Z,18.26
2018-09-20T07:03:27.756Z,18.32
2018-09-20T07:04:37.908Z,18.41
2018-09-20T07:05:48.039Z,18.39
2018-09-20T07:06:57.884Z,18.42
2018-09-20T07:08:06.915Z,18.55
2018-09-20T07:09:16.497Z,18.57
2018-09-20T07:10:26.368Z,18.66
2018-09-20T07:11:36.212Z,18.67
2018-09-20T07:12:46.329Z,18.73
2018-09-20T07:13:55.793Z,18.8
2018-09-20T07:15:05.649Z,18.88
2018-09-20T07:16:15.512Z,18.95
2018-09-20T07:17:25.360Z,18.98
2018-09-20T07:18:34.669Z,18.91
2018-09-20T07:19:44.517Z,19.1
2018-09-20T07:20:54.625Z,19.11
2018-09-20T07:22:04.737Z,19.07
2018-09-20T07:23:14.587Z,19.11
2018-09-20T07:24:24.154Z,19.1
2018-09-20T07:25:33.761Z,19.02
2018-09-20T07:26:43.500Z,19.19
2018-09-20T07:27:53.619Z,19.22
2018-09-20T07:29:03.735Z,19.16
2018-09-20T07:30:13.603Z,19.32
2018-09-20T07:31:23.454Z,19.21
2018-09-20T07:32:33.037Z,19.32
2018-09-20T07:33:43.283Z,19.31
2018-09-20T07:34:53.119Z,19.33
2018-09-20T07:36:02.962Z,19.4
2018-09-20T07:37:12.839Z,19.37
2018-09-20T07:38:22.678Z,19.47
2018-09-20T07:39:32.555Z,19.44
2018-09-20T07:40:42.674Z,19.43
2018-09-20T07:41:52.523Z,19.43
2018-09-20T07:43:02.094Z,19.54
2018-09-20T07:44:11.673Z,19.58
2018-09-20T07:45:21.566Z,19.59
2018-09-20T07:46:31.140Z,19.62
2018-09-20T07:47:40.715Z,19.59
2018-09-20T07:48:51.068Z,19.69
2018-09-20T07:50:01.179Z,19.69
2018-09-20T07:51:10.756Z,19.77
2018-09-20T07:52:20.053Z,19.77
2018-09-20T07:53:29.919Z,19.77
2018-09-20T07:54:40.138Z,19.86
2018-09-20T07:55:49.985Z,19.94
2018-09-20T07:57:00.104Z,19.95
2018-09-20T07:58:09.984Z,20.01
2018-09-20T07:59:19.552Z,20.1
2018-09-20T08:00:29.410Z,20.11
2018-09-20T08:01:39.667Z,20.11
2018-09-20T08:02:50.002Z,20.17
2018-09-20T08:03:59.856Z,20.2
2018-09-20T08:05:08.891Z,20.28
2018-09-20T08:06:18.463Z,20.21
2018-09-20T08:07:28.577Z,20.26
2018-09-20T08:08:38.421Z,20.2
2018-09-20T08:09:47.727Z,20.41
2018-09-20T08:10:57.302Z,20.31
2018-09-20T08:12:06.877Z,20.47
2018-09-20T08:13:16.463Z,20.32
2018-09-20T08:14:26.360Z,20.33
2018-09-20T08:15:36.486Z,20.47
2018-09-20T08:16:46.058Z,20.51
2018-09-20T08:17:55.898Z,20.61
2018-09-20T08:19:05.738Z,20.69
2018-09-20T08:20:15.856Z,20.7
2018-09-20T08:21:26.123Z,20.82
2018-09-20T08:22:36.026Z,20.77
2018-09-20T08:23:45.601Z,20.77
2018-09-20T08:24:55.720Z,20.8
2018-09-20T08:26:04.755Z,20.95
2018-09-20T08:27:14.328Z,20.98
2018-09-20T08:28:24.439Z,20.95
2018-09-20T08:29:34.556Z,20.92
2018-09-20T08:30:44.420Z,20.95
2018-09-20T08:31:54.004Z,21.04
2018-09-20T08:33:04.116Z,20.92
2018-09-20T08:34:13.992Z,21.06
2018-09-20T08:35:24.120Z,21.01
2018-09-20T08:36:33.777Z,21.1
2018-09-20T08:37:43.875Z,21.06
2018-09-20T08:38:54.396Z,21.19
2018-09-20T08:40:04.514Z,21.14
2018-09-20T08:41:14.401Z,21.17
2018-09-20T08:42:24.469Z,21.24
2018-09-20T08:43:34.823Z,21.22
2018-09-20T08:44:44.391Z,21.25
2018-09-20T08:45:54.246Z,21.29
2018-09-20T08:47:03.823Z,21.29
2018-09-20T08:48:13.411Z,21.35
2018-09-20T08:49:23.260Z,21.31
2018-09-20T08:50:33.102Z,21.4
2018-09-20T08:51:42.951Z,21.43
2018-09-20T08:52:52.804Z,21.42
2018-09-20T08:54:02.653Z,21.46
2018-09-20T08:55:12.787Z,21.44
2018-09-20T08:56:22.094Z,21.43
2018-09-20T08:57:32.217Z,21.5
2018-09-20T08:58:41.818Z,21.5
2018-09-20T08:59:51.943Z,21.62
2018-09-20T09:01:01.842Z,21.61
2018-09-20T09:02:11.423Z,21.59
2018-09-20T09:03:20.733Z,21.65
2018-09-20T09:04:30.758Z,21.65
2018-09-20T09:05:41.118Z,21.67
2018-09-20T09:06:51.237Z,21.72
2018-09-20T09:08:00.818Z,21.77
2018-09-20T09:09:10.668Z,21.75
2018-09-20T09:10:20.781Z,21.84
2018-09-20T09:11:30.625Z,21.88
2018-09-20T09:12:40.458Z,21.79
2018-09-20T09:13:50.310Z,21.92
2018-09-20T09:15:00.207Z,21.92
2018-09-20T09:16:10.053Z,21.98
2018-09-20T09:17:19.639Z,21.96
2018-09-20T09:18:29.484Z,21.99
2018-09-20T09:19:38.877Z,22
2018-09-20T09:20:48.770Z,21.99
2018-09-20T09:21:58.346Z,22.05
2018-09-20T09:23:08.465Z,21.99
2018-09-20T09:24:18.314Z,22
2018-09-20T09:25:28.161Z,22.03
2018-09-20T09:26:38.015Z,22.05
2018-09-20T09:27:47.864Z,22
2018-09-20T09:28:57.984Z,21.98
2018-09-20T09:30:07.502Z,22
2018-09-20T09:31:17.643Z,22.05
2018-09-20T09:32:27.252Z,22
2018-09-20T09:33:37.099Z,22.07
2018-09-20T09:34:46.686Z,22.03
2018-09-20T09:35:55.988Z,22.03
2018-09-20T09:37:06.106Z,22.03
2018-09-20T09:38:15.421Z,22.02
2018-09-20T09:39:25.019Z,22
2018-09-20T09:40:34.586Z,22.07
2018-09-20T09:41:44.665Z,22.14
2018-09-20T09:42:54.249Z,22.22
2018-09-20T09:44:04.112Z,22.12
2018-09-20T09:45:13.956Z,22.07
2018-09-20T09:46:24.072Z,22.2
2018-09-20T09:47:33.646Z,22.27
2018-09-20T09:48:42.948Z,22.27
2018-09-20T09:49:52.521Z,22.18
2018-09-20T09:51:02.373Z,22.2
2018-09-20T09:52:11.945Z,22.18
2018-09-20T09:53:21.723Z,22.18
2018-09-20T09:54:32.112Z,22.17
2018-09-20T09:55:41.408Z,22.21
2018-09-20T09:56:50.707Z,22.3
2018-09-20T09:58:00.554Z,22.18
2018-09-20T09:59:10.392Z,22.18
2018-09-20T10:00:19.695Z,22.24
2018-09-20T10:01:29.542Z,22.24
2018-09-20T10:02:38.895Z,22.3
2018-09-20T10:03:48.617Z,22.37
2018-09-20T10:04:58.464Z,22.42
2018-09-20T10:06:07.498Z,22.52
2018-09-20T10:07:17.490Z,22.61
2018-09-20T10:08:27.138Z,22.55
2018-09-20T10:09:36.716Z,22.75
2018-09-20T10:10:46.590Z,22.76
2018-09-20T10:11:56.712Z,22.76
2018-09-20T10:13:06.565Z,22.86
2018-09-20T10:14:16.728Z,22.88
2018-09-20T10:15:26.916Z,22.85
2018-09-20T10:16:36.763Z,22.95
2018-09-20T10:17:46.369Z,22.95
2018-09-20T10:18:56.220Z,23.05
2018-09-20T10:20:06.317Z,23.02
2018-09-20T10:21:16.237Z,23.12
2018-09-20T10:22:26.422Z,23.07
2018-09-20T10:23:36.281Z,23.07
2018-09-20T10:24:46.403Z,23.1
2018-09-20T10:25:56.549Z,23.04
2018-09-20T10:27:06.671Z,23.1
2018-09-20T10:28:16.405Z,23.12
2018-09-20T10:29:26.076Z,23.12
2018-09-20T10:30:36.211Z,23.13
2018-09-20T10:31:46.056Z,23.01
2018-09-20T10:32:55.363Z,23.12
2018-09-20T10:34:05.521Z,23.19
2018-09-20T10:35:15.721Z,23.17
2018-09-20T10:36:25.575Z,23.22
2018-09-20T10:37:35.423Z,23.23
2018-09-20T10:38:45.277Z,23.19
2018-09-20T10:39:55.440Z,23.22
2018-09-20T10:41:05.353Z,23.19
2018-09-20T10:42:15.195Z,23.31
2018-09-20T10:43:25.072Z,23.22
2018-09-20T10:44:34.644Z,23.23
2018-09-20T10:45:44.539Z,23.28
2018-09-20T10:46:54.378Z,23.32
2018-09-20T10:48:03.956Z,23.31
2018-09-20T10:49:13.536Z,23.28
2018-09-20T10:50:23.413Z,23.33
2018-09-20T10:51:33.034Z,23.47
2018-09-20T10:52:43.152Z,23.5
2018-09-20T10:53:52.995Z,23.6
2018-09-20T10:55:02.568Z,23.57
2018-09-20T10:56:11.877Z,23.61
2018-09-20T10:57:22.000Z,23.54
2018-09-20T10:58:31.877Z,23.6
2018-09-20T10:59:41.741Z,23.63
2018-09-20T11:00:51.327Z,23.7
2018-09-20T11:02:01.177Z,23.73
2018-09-20T11:03:11.688Z,23.76
2018-09-20T11:04:21.358Z,23.87
2018-09-20T11:05:31.210Z,23.85
2018-09-20T11:06:41.560Z,23.91
2018-09-20T11:07:51.413Z,23.8
2018-09-20T11:09:01.276Z,23.94
2018-09-20T11:10:11.128Z,23.95
2018-09-20T11:11:20.995Z,23.94
2018-09-20T11:12:30.841Z,23.98
2018-09-20T11:13:40.417Z,24.05
2018-09-20T11:14:50.324Z,24.02
2018-09-20T11:16:00.166Z,24.12
2018-09-20T11:17:09.741Z,24.18
2018-09-20T11:18:19.328Z,24.3
2018-09-20T11:19:28.633Z,24.28
2018-09-20T11:20:38.779Z,24.18
2018-09-20T11:21:48.352Z,24.15
2018-09-20T11:22:58.199Z,24.15
2018-09-20T11:24:07.506Z,24.2
2018-09-20T11:25:17.355Z,24.2
2018-09-20T11:26:27.250Z,24.2
2018-09-20T11:27:36.852Z,24.12
2018-09-20T11:28:46.972Z,24.2
2018-09-20T11:29:57.083Z,24.18
2018-09-20T11:31:06.932Z,24.16
2018-09-20T11:32:16.825Z,24.15
2018-09-20T11:33:27.236Z,24.16
2018-09-20T11:34:37.079Z,24.18
2018-09-20T11:35:47.245Z,24.16
2018-09-20T11:36:57.375Z,24.16
2018-09-20T11:38:06.688Z,24.18
2018-09-20T11:39:15.993Z,24.16
2018-09-20T11:40:25.568Z,24.16
2018-09-20T11:41:35.765Z,24.22
2018-09-20T11:42:45.216Z,24.22
2018-09-20T11:43:55.256Z,24.28
2018-09-20T11:45:05.314Z,24.32
2018-09-20T11:46:15.193Z,24.34
2018-09-20T11:47:25.361Z,24.37
2018-09-20T11:48:35.356Z,24.39
2018-09-20T11:49:45.492Z,24.32
2018-09-20T11:50:55.073Z,24.2
2018-09-20T11:52:05.326Z,24.22
2018-09-20T11:53:15.177Z,24.16
2018-09-20T11:54:25.124Z,24.34
2018-09-20T11:55:35.012Z,24.39
2018-09-20T11:56:44.861Z,24.35
2018-09-20T11:57:54.745Z,24.39
2018-09-20T11:59:04.052Z,24.32
2018-09-20T12:00:14.151Z,24.32
2018-09-20T12:01:24.365Z,24.34
2018-09-20T12:02:34.691Z,24.52
2018-09-20T12:03:44.832Z,24.53
2018-09-20T12:04:54.686Z,24.43
2018-09-20T12:06:04.529Z,24.55
2018-09-20T12:07:14.103Z,24.62
2018-09-20T12:08:24.221Z,24.8
2018-09-20T12:09:34.099Z,24.8
2018-09-20T12:10:43.741Z,24.85
2018-09-20T12:11:53.585Z,24.83
2018-09-20T12:13:03.158Z,24.84
2018-09-20T12:14:12.740Z,24.76
2018-09-20T12:15:22.313Z,24.76
2018-09-20T12:16:32.162Z,24.8
2018-09-20T12:17:42.312Z,24.81
2018-09-20T12:18:52.462Z,24.88
2018-09-20T12:20:02.509Z,24.85
2018-09-20T12:21:12.584Z,24.83
2018-09-20T12:22:21.621Z,24.8
2018-09-20T12:23:31.730Z,24.84
2018-09-20T12:24:41.593Z,24.91
2018-09-20T12:25:51.232Z,24.95
2018-09-20T12:27:01.547Z,25.02
2018-09-20T12:28:11.372Z,25
2018-09-20T12:29:21.633Z,25.05
2018-09-20T12:30:31.299Z,24.88
2018-09-20T12:31:41.061Z,24.98
2018-09-20T12:32:51.501Z,25.02
2018-09-20T12:34:01.230Z,24.99
2018-09-20T12:35:11.081Z,24.88
2018-09-20T12:36:21.293Z,24.81
2018-09-20T12:37:31.214Z,24.84
2018-09-20T12:38:41.526Z,24.9
2018-09-20T12:39:51.575Z,24.83
2018-09-20T12:41:01.532Z,24.83
2018-09-20T12:42:11.996Z,24.93
2018-09-20T12:43:22.132Z,24.87
2018-09-20T12:44:31.860Z,24.87
2018-09-20T12:45:41.606Z,24.91
2018-09-20T12:46:51.606Z,25.05
2018-09-20T12:48:01.693Z,25.02
2018-09-20T12:49:11.966Z,24.99
2018-09-20T12:50:21.894Z,25.21
2018-09-20T12:51:32.074Z,25.13
2018-09-20T12:52:42.045Z,25.28
2018-09-20T12:53:52.290Z,25.23
2018-09-20T12:55:01.964Z,25.38
2018-09-20T12:56:11.730Z,25.28
2018-09-20T12:57:21.211Z,25.4
2018-09-20T12:58:30.916Z,25.38
2018-09-20T12:59:40.562Z,25.21
2018-09-20T13:00:50.461Z,25.38
2018-09-20T13:02:00.716Z,25.38
2018-09-20T13:03:10.594Z,25.43
2018-09-20T13:04:20.612Z,25.54
2018-09-20T13:05:30.395Z,25.32
2018-09-20T13:06:39.787Z,25.4
2018-09-20T13:07:49.722Z,25.36
2018-09-20T13:08:59.626Z,25.46
2018-09-20T13:10:09.509Z,25.5
2018-09-20T13:11:19.708Z,25.52
2018-09-20T13:12:29.502Z,25.55
2018-09-20T13:13:39.698Z,25.43
2018-09-20T13:14:49.397Z,25.45
2018-09-20T13:15:59.599Z,25.43
2018-09-20T13:17:08.944Z,25.47
2018-09-20T13:18:19.125Z,25.5
2018-09-20T13:19:28.285Z,25.65
2018-09-20T13:20:38.472Z,25.62
2018-09-20T13:21:48.505Z,25.62
2018-09-20T13:22:57.913Z,25.79
2018-09-20T13:24:07.849Z,25.8
2018-09-20T13:25:17.602Z,25.73
2018-09-20T13:26:28.097Z,25.88
2018-09-20T13:27:38.344Z,25.79
2018-09-20T13:28:48.614Z,25.82
2018-09-20T13:29:58.363Z,25.85
2018-09-20T13:31:07.905Z,25.75
2018-09-20T13:32:18.145Z,25.85
2018-09-20T13:33:27.853Z,25.79
2018-09-20T13:34:38.025Z,25.82
2018-09-20T13:35:48.225Z,25.8
2018-09-20T13:36:58.406Z,25.62
2018-09-20T13:38:08.226Z,25.55
2018-09-20T13:39:17.935Z,25.5
2018-09-20T13:40:27.875Z,25.54
2018-09-20T13:41:37.852Z,25.6
2018-09-20T13:42:48.063Z,25.79
2018-09-20T13:43:57.681Z,25.82
2018-09-20T13:45:07.345Z,25.94
2018-09-20T13:46:17.330Z,25.99
2018-09-20T13:47:27.021Z,26.12
2018-09-20T13:48:37.372Z,26.09
2018-09-20T13:49:47.717Z,26.07
2018-09-20T13:50:57.767Z,26.02
2018-09-20T13:52:06.852Z,26.05
2018-09-20T13:53:17.035Z,26.06
2018-09-20T13:54:26.982Z,26.02
2018-09-20T13:55:37.242Z,26.13
2018-09-20T13:56:46.720Z,26.15
2018-09-20T13:57:56.432Z,26.23
2018-09-20T13:59:06.400Z,26.33
2018-09-20T14:00:16.382Z,26.47
2018-09-20T14:01:26.015Z,26.66
2018-09-20T14:02:35.982Z,26.77
2018-09-20T14:03:46.491Z,26.81
2018-09-20T14:04:56.497Z,26.87
2018-09-20T14:06:07.025Z,26.82
2018-09-20T14:07:16.753Z,26.77
2018-09-20T14:08:26.981Z,26.89
2018-09-20T14:09:36.619Z,26.99
2018-09-20T14:10:46.570Z,26.94
2018-09-20T14:11:57.090Z,26.88
2018-09-20T14:13:07.015Z,26.81
2018-09-20T14:14:16.993Z,26.81
2018-09-20T14:15:26.533Z,26.76
2018-09-20T14:16:36.875Z,26.85
2018-09-20T14:17:47.056Z,26.84
2018-09-20T14:18:56.457Z,26.88
2018-09-20T14:20:06.364Z,26.82
2018-09-20T14:21:16.307Z,26.77
2018-09-20T14:22:25.677Z,26.73
2018-09-20T14:23:36.015Z,26.57
2018-09-20T14:24:46.003Z,26.57
2018-09-20T14:25:55.914Z,26.5
2018-09-20T14:27:06.449Z,26.51
2018-09-20T14:28:16.074Z,26.62
2018-09-20T14:29:26.378Z,26.65
2018-09-20T14:30:36.483Z,26.77
2018-09-20T14:31:46.729Z,26.76
2018-09-20T14:32:56.660Z,26.73
2018-09-20T14:34:06.006Z,26.66
2018-09-20T14:35:15.996Z,26.67
2018-09-20T14:36:25.411Z,26.62
2018-09-20T14:37:35.684Z,26.45
2018-09-20T14:38:45.661Z,26.47
2018-09-20T14:39:55.980Z,26.4
2018-09-20T14:41:06.166Z,26.36
2018-09-20T14:42:16.353Z,26.35
2018-09-20T14:43:26.287Z,26.18
2018-09-20T14:44:35.981Z,26.15
2018-09-20T14:45:45.951Z,26.12
2018-09-20T14:46:55.950Z,26.07
2018-09-20T14:48:06.195Z,26.09
2018-09-20T14:49:15.832Z,26.09
2018-09-20T14:50:25.472Z,26.01
2018-09-20T14:51:35.148Z,26.12
2018-09-20T14:52:45.669Z,26.06
2018-09-20T14:53:55.823Z,26.01
2018-09-20T14:55:05.850Z,26.07
2018-09-20T14:56:15.839Z,25.95
2018-09-20T14:57:25.855Z,25.97
2018-09-20T14:58:35.875Z,26.05
2018-09-20T14:59:45.874Z,25.98
2018-09-20T15:00:55.565Z,25.95
2018-09-20T15:02:06.099Z,25.98
2018-09-20T15:03:16.181Z,25.85
2018-09-20T15:04:26.480Z,25.9